createdAt,value
2018-09-24T00:00:06.446Z,9.00
2018-09-24T00:02:34.608Z,8.90
2018-09-24T00:05:02.822Z,8.90
2018-09-24T00:07:31.066Z,8.90
2018-09-24T00:09:59.571Z,9.00
2018-09-24T00:12:27.812Z,8.90
2018-09-24T00:14:56.061Z,8.80
2018-09-24T00:17:24.319Z,8.90
2018-09-24T00:19:52.562Z,8.90
2018-09-24T00:22:20.852Z,8.90
2018-09-24T00:24:49.699Z,8.80
2018-09-24T00:27:17.924Z,8.80
2018-09-24T00:29:46.180Z,8.80
2018-09-24T00:32:14.377Z,8.80
2018-09-24T00:34:42.590Z,8.80
2018-09-24T00:37:10.811Z,8.70
2018-09-24T00:39:39.067Z,8.70
2018-09-24T00:42:07.316Z,8.80
2018-09-24T00:44:35.545Z,8.70
2018-09-24T00:47:03.757Z,8.80
2018-09-24T00:49:32.016Z,8.70
2018-09-24T00:52:00.262Z,8.70
2018-09-24T00:54:28.503Z,8.70
2018-09-24T00:56:56.690Z,8.70
2018-09-24T00:59:24.931Z,8.60
2018-09-24T01:01:53.234Z,8.60
2018-09-24T01:04:21.477Z,8.50
2018-09-24T01:06:50.031Z,8.60
2018-09-24T01:09:19.008Z,8.60
2018-09-24T01:11:47.251Z,8.50
2018-09-24T01:14:15.469Z,8.40
2018-09-24T01:16:43.694Z,8.40
2018-09-24T01:19:11.936Z,8.40
2018-09-24T01:21:40.175Z,8.40
2018-09-24T01:24:08.434Z,8.40
2018-09-24T01:26:36.661Z,8.40
2018-09-24T01:29:04.909Z,8.40
2018-09-24T01:31:33.135Z,8.40
2018-09-24T01:34:01.369Z,8.40
2018-09-24T01:36:30.254Z,8.40
2018-09-24T01:38:58.454Z,8.30
2018-09-24T01:41:27.568Z,8.40
2018-09-24T01:43:55.810Z,8.40
2018-09-24T01:46:24.056Z,8.40
2018-09-24T01:48:52.338Z,8.30
2018-09-24T01:51:20.964Z,8.30
2018-09-24T01:53:49.215Z,8.30
2018-09-24T01:56:17.448Z,8.40
2018-09-24T01:58:45.655Z,8.50
2018-09-24T02:01:13.896Z,8.40
2018-09-24T02:03:42.364Z,8.40
2018-09-24T02:06:10.577Z,8.30
2018-09-24T02:08:42.647Z,8.30
2018-09-24T02:11:11.034Z,8.30
2018-09-24T02:13:46.679Z,8.20
2018-09-24T02:16:15.121Z,8.20
2018-09-24T02:18:44.658Z,8.20
2018-09-24T02:21:12.868Z,8.20
2018-09-24T02:23:41.107Z,8.20
2018-09-24T02:26:09.628Z,8.10
2018-09-24T02:28:37.880Z,8.10
2018-09-24T02:31:06.187Z,8.10
2018-09-24T02:33:34.442Z,8.10
2018-09-24T02:36:02.661Z,8.10
2018-09-24T02:38:36.916Z,8.10
2018-09-24T02:41:05.151Z,8.00
2018-09-24T02:43:33.370Z,8.00
2018-09-24T02:46:01.579Z,8.00
2018-09-24T02:48:29.802Z,8.00
2018-09-24T02:50:58.046Z,8.00
2018-09-24T02:53:26.304Z,8.00
2018-09-24T02:55:54.535Z,8.00
2018-09-24T02:58:22.772Z,8.00
2018-09-24T03:00:51.291Z,8.00
2018-09-24T03:03:19.565Z,7.90
2018-09-24T03:05:47.778Z,8.00
2018-09-24T03:08:16.012Z,7.90
2018-09-24T03:10:44.271Z,8.00
2018-09-24T03:13:12.515Z,8.00
2018-09-24T03:15:41.706Z,7.80
2018-09-24T03:18:10.500Z,7.90
2018-09-24T03:20:40.433Z,7.90
2018-09-24T03:23:09.069Z,7.80
2018-09-24T03:25:37.650Z,7.90
2018-09-24T03:28:05.900Z,7.90
2018-09-24T03:30:39.383Z,7.80
2018-09-24T03:33:07.610Z,7.80
2018-09-24T03:35:35.997Z,7.80
2018-09-24T03:38:04.221Z,7.80
2018-09-24T03:40:32.607Z,7.80
2018-09-24T03:43:01.115Z,7.80
2018-09-24T03:45:30.365Z,7.90
2018-09-24T03:47:58.823Z,7.80
2018-09-24T03:50:27.235Z,7.80
2018-09-24T03:52:55.469Z,7.80
2018-09-24T03:55:23.760Z,7.80
2018-09-24T03:57:52.052Z,7.70
2018-09-24T04:00:20.296Z,7.70
2018-09-24T04:02:48.518Z,7.60
2018-09-24T04:05:22.179Z,7.70
2018-09-24T04:07:55.794Z,7.70
2018-09-24T04:10:29.404Z,7.70
2018-09-24T04:13:03.219Z,7.70
2018-09-24T04:15:36.867Z,7.70
2018-09-24T04:18:10.653Z,7.70
2018-09-24T04:20:44.100Z,7.70
2018-09-24T04:23:17.771Z,7.70
2018-09-24T04:25:51.375Z,7.60
2018-09-24T04:28:25.140Z,7.60
2018-09-24T04:30:58.875Z,7.60
2018-09-24T04:33:32.599Z,7.50
2018-09-24T04:36:06.244Z,7.60
2018-09-24T04:38:39.983Z,7.50
2018-09-24T04:41:13.850Z,7.50
2018-09-24T04:43:47.706Z,7.50
2018-09-24T04:46:21.151Z,7.50
2018-09-24T04:48:54.741Z,7.50
2018-09-24T04:51:28.244Z,7.50
2018-09-24T04:54:01.918Z,7.50
2018-09-24T04:56:35.689Z,7.40
2018-09-24T04:59:09.447Z,7.40
2018-09-24T05:01:42.954Z,7.50
2018-09-24T05:04:16.583Z,7.50
2018-09-24T05:06:50.210Z,7.50
2018-09-24T05:09:23.919Z,7.50
2018-09-24T05:11:57.734Z,7.50
2018-09-24T05:14:31.564Z,7.40
2018-09-24T05:17:05.302Z,7.40
2018-09-24T05:19:38.989Z,7.40
2018-09-24T05:22:12.389Z,7.30
2018-09-24T05:24:46.010Z,7.30
2018-09-24T05:27:19.648Z,7.30
2018-09-24T05:29:53.348Z,7.30
2018-09-24T05:32:27.071Z,7.30
2018-09-24T05:35:00.629Z,7.30
2018-09-24T05:37:34.252Z,7.40
2018-09-24T05:40:08.157Z,7.40
2018-09-24T05:42:41.713Z,7.40
2018-09-24T05:45:15.499Z,7.40
2018-09-24T05:47:49.284Z,7.50
2018-09-24T05:50:23.080Z,7.50
2018-09-24T05:52:56.893Z,7.50
2018-09-24T05:55:30.723Z,7.50
2018-09-24T05:58:05.193Z,7.60
2018-09-24T06:00:38.783Z,7.60
2018-09-24T06:03:12.360Z,7.60
2018-09-24T06:05:45.897Z,7.70
2018-09-24T06:08:19.708Z,7.70
2018-09-24T06:10:53.209Z,7.70
2018-09-24T06:13:26.929Z,7.80
2018-09-24T06:16:00.602Z,7.80
2018-09-24T06:18:34.334Z,7.70
2018-09-24T06:21:08.404Z,7.80
2018-09-24T06:23:42.881Z,7.80
2018-09-24T06:26:16.614Z,7.90
2018-09-24T06:28:50.215Z,8.00
2018-09-24T06:31:23.722Z,8.00
2018-09-24T06:33:57.343Z,8.10
2018-09-24T06:36:31.129Z,8.10
2018-09-24T06:39:04.723Z,8.10
2018-09-24T06:41:38.486Z,8.10
2018-09-24T06:44:12.181Z,8.10
2018-09-24T06:46:45.993Z,8.20
2018-09-24T06:49:19.653Z,8.20
2018-09-24T06:51:53.421Z,8.30
2018-09-24T06:54:27.056Z,8.40
2018-09-24T06:57:00.807Z,8.40
2018-09-24T06:59:34.611Z,8.40
2018-09-24T07:02:08.293Z,8.50
2018-09-24T07:04:42.058Z,8.60
2018-09-24T07:07:15.824Z,8.70
2018-09-24T07:09:49.544Z,8.80
2018-09-24T07:12:23.246Z,8.90
2018-09-24T07:14:56.818Z,8.90
2018-09-24T07:17:30.382Z,9.00
2018-09-24T07:20:03.855Z,9.10
2018-09-24T07:22:37.684Z,9.10
2018-09-24T07:25:11.358Z,9.20
2018-09-24T07:27:45.068Z,9.40
2018-09-24T07:30:18.508Z,9.40
2018-09-24T07:32:52.199Z,9.50
2018-09-24T07:35:25.775Z,9.40
2018-09-24T07:37:59.428Z,9.50
2018-09-24T07:40:33.160Z,9.60
2018-09-24T07:43:07.982Z,9.70
2018-09-24T07:45:41.724Z,9.80
2018-09-24T07:48:18.143Z,9.90
2018-09-24T07:50:51.804Z,10.00
2018-09-24T07:53:25.610Z,9.90
2018-09-24T07:55:59.330Z,10.10
2018-09-24T07:58:33.056Z,10.20
2018-09-24T08:01:06.804Z,10.30
2018-09-24T08:03:40.532Z,10.40
2018-09-24T08:06:14.214Z,10.50
2018-09-24T08:08:48.460Z,10.70
2018-09-24T08:11:22.162Z,10.80
2018-09-24T08:13:55.760Z,10.80
2018-09-24T08:16:29.444Z,10.80
2018-09-24T08:19:03.063Z,10.90
2018-09-24T08:21:36.778Z,10.90
2018-09-24T08:24:10.521Z,11.00
2018-09-24T08:26:44.247Z,11.00
2018-09-24T08:29:17.951Z,11.00
2018-09-24T08:31:51.738Z,11.20
2018-09-24T08:34:25.819Z,11.30
2018-09-24T08:36:59.486Z,11.40
2018-09-24T08:39:33.098Z,11.40
2018-09-24T08:42:06.751Z,11.50
2018-09-24T08:44:40.217Z,11.60
2018-09-24T08:47:13.797Z,11.70
2018-09-24T08:49:47.424Z,11.80
2018-09-24T08:52:20.862Z,11.90
2018-09-24T08:54:54.634Z,12.10
2018-09-24T08:57:28.155Z,12.20
2018-09-24T09:00:01.926Z,12.30
2018-09-24T09:02:35.540Z,12.30
2018-09-24T09:05:09.302Z,12.40
2018-09-24T09:07:43.045Z,12.40
2018-09-24T09:10:16.775Z,12.60
2018-09-24T09:12:50.484Z,12.60
2018-09-24T09:15:24.263Z,12.70
2018-09-24T09:17:58.072Z,12.70
2018-09-24T09:20:31.887Z,12.70
2018-09-24T09:23:05.697Z,12.80
2018-09-24T09:25:39.280Z,12.90
2018-09-24T09:28:12.944Z,13.00
2018-09-24T09:30:46.551Z,13.10
2018-09-24T09:33:20.324Z,13.20
2018-09-24T09:35:54.044Z,13.30
2018-09-24T09:38:27.805Z,13.50
2018-09-24T09:41:01.667Z,13.60
2018-09-24T09:43:35.233Z,13.70
2018-09-24T09:46:08.965Z,13.60
2018-09-24T09:48:42.686Z,13.60
2018-09-24T09:51:16.418Z,13.90
2018-09-24T09:53:50.172Z,14.00
2018-09-24T09:56:23.828Z,14.10
2018-09-24T09:58:57.581Z,14.00
2018-09-24T10:01:31.219Z,14.00
2018-09-24T10:04:04.783Z,14.20
2018-09-24T10:06:38.431Z,14.40
2018-09-24T10:09:13.009Z,14.70
2018-09-24T10:11:46.880Z,14.60
2018-09-24T10:14:20.629Z,14.50
2018-09-24T10:16:54.460Z,14.60
2018-09-24T10:19:28.274Z,14.70
2018-09-24T10:22:02.104Z,14.70
2018-09-24T10:24:35.935Z,14.40
2018-09-24T10:27:09.653Z,14.40
2018-09-24T10:29:43.326Z,14.30
2018-09-24T10:32:17.105Z,14.30
2018-09-24T10:34:50.861Z,14.40
2018-09-24T10:37:24.446Z,14.40
2018-09-24T10:39:58.128Z,14.40
2018-09-24T10:42:31.927Z,14.50
2018-09-24T10:45:05.708Z,14.50
2018-09-24T10:47:39.516Z,14.70
2018-09-24T10:50:13.225Z,14.60
2018-09-24T10:52:46.959Z,14.60
2018-09-24T10:55:20.521Z,14.80
2018-09-24T10:57:54.262Z,14.80
2018-09-24T11:00:27.945Z,14.80
2018-09-24T11:03:01.723Z,15.00
2018-09-24T11:05:35.283Z,15.50
2018-09-24T11:08:08.910Z,15.70
2018-09-24T11:10:42.579Z,15.50
2018-09-24T11:13:16.118Z,15.30
2018-09-24T11:15:49.749Z,15.40
2018-09-24T11:18:23.368Z,15.70
2018-09-24T11:20:56.978Z,15.60
2018-09-24T11:23:30.686Z,16.30
2018-09-24T11:26:04.311Z,17.10
2018-09-24T11:28:37.936Z,17.60
2018-09-24T11:31:11.875Z,18.80
2018-09-24T11:33:45.577Z,19.00
2018-09-24T11:36:19.190Z,19.40
2018-09-24T11:38:52.922Z,18.60
2018-09-24T11:41:26.605Z,18.20
2018-09-24T11:44:01.433Z,17.50
2018-09-24T11:46:35.213Z,17.40
2018-09-24T11:49:08.723Z,17.90
2018-09-24T11:51:42.416Z,18.00
2018-09-24T11:54:15.971Z,18.40
2018-09-24T11:56:49.472Z,19.00
2018-09-24T11:59:22.934Z,19.50
2018-09-24T12:01:56.696Z,19.20
2018-09-24T12:04:30.507Z,19.50
2018-09-24T12:07:04.307Z,20.00
2018-09-24T12:09:38.085Z,19.40
2018-09-24T12:12:11.732Z,19.60
2018-09-24T12:14:45.885Z,20.10
2018-09-24T12:17:19.591Z,20.70
2018-09-24T12:19:53.327Z,21.20
2018-09-24T12:22:27.006Z,21.10
2018-09-24T12:25:00.706Z,21.00
2018-09-24T12:27:34.454Z,20.50
2018-09-24T12:30:08.782Z,20.20
2018-09-24T12:32:42.337Z,20.30
2018-09-24T12:35:15.992Z,20.90
2018-09-24T12:37:49.483Z,21.40
2018-09-24T12:40:23.221Z,21.20
2018-09-24T12:42:57.034Z,20.80
2018-09-24T12:45:30.867Z,21.20
2018-09-24T12:48:04.628Z,22.20
2018-09-24T12:50:38.341Z,22.20
2018-09-24T12:53:11.900Z,22.10
2018-09-24T12:55:45.572Z,21.10
2018-09-24T12:58:19.503Z,21.40
2018-09-24T13:00:53.115Z,22.10
2018-09-24T13:03:26.849Z,23.20
2018-09-24T13:06:00.651Z,23.30
2018-09-24T13:08:34.172Z,23.00
2018-09-24T13:11:07.937Z,23.00
2018-09-24T13:13:41.695Z,22.70
2018-09-24T13:16:15.322Z,22.70
2018-09-24T13:18:49.148Z,22.70
2018-09-24T13:21:22.863Z,22.90
2018-09-24T13:23:56.670Z,23.70
2018-09-24T13:26:30.345Z,23.40
2018-09-24T13:29:03.951Z,22.70
2018-09-24T13:31:37.693Z,22.90
2018-09-24T13:34:12.233Z,23.20
2018-09-24T13:36:45.963Z,23.90
2018-09-24T13:39:19.779Z,24.50
2018-09-24T13:41:53.444Z,24.00
2018-09-24T13:44:27.214Z,23.90
2018-09-24T13:47:00.977Z,24.30
2018-09-24T13:49:34.718Z,24.40
2018-09-24T13:52:08.396Z,24.80
2018-09-24T13:54:42.199Z,25.60
2018-09-24T13:57:16.014Z,25.60
2018-09-24T13:59:49.757Z,25.90
2018-09-24T14:02:23.593Z,26.40
2018-09-24T14:04:57.403Z,26.90
2018-09-24T14:07:30.922Z,27.50
2018-09-24T14:10:04.522Z,26.90
2018-09-24T14:12:38.147Z,27.00
2018-09-24T14:15:11.834Z,27.50
2018-09-24T14:17:45.656Z,28.30
2018-09-24T14:20:19.269Z,28.40
2018-09-24T14:22:53.004Z,28.00
2018-09-24T14:25:26.903Z,27.60
2018-09-24T14:28:00.680Z,26.10
2018-09-24T14:30:34.402Z,24.30
2018-09-24T14:33:08.016Z,22.10
2018-09-24T14:35:41.699Z,21.10
2018-09-24T14:38:15.368Z,21.10
2018-09-24T14:40:49.015Z,21.50
2018-09-24T14:43:22.770Z,22.90
2018-09-24T14:45:56.494Z,24.40
2018-09-24T14:48:30.224Z,26.10
2018-09-24T14:51:03.934Z,27.20
2018-09-24T14:53:37.622Z,27.80
2018-09-24T14:56:11.203Z,28.00
2018-09-24T14:58:44.941Z,28.50
2018-09-24T15:01:19.308Z,29.10
2018-09-24T15:03:53.084Z,29.20
2018-09-24T15:06:27.975Z,28.80
2018-09-24T15:09:01.710Z,28.60
2018-09-24T15:11:35.203Z,28.30
2018-09-24T15:14:10.007Z,27.00
2018-09-24T15:16:43.737Z,25.60
2018-09-24T15:19:17.523Z,24.80
2018-09-24T15:21:51.313Z,23.30
2018-09-24T15:24:24.815Z,21.70
2018-09-24T15:26:58.524Z,20.80
2018-09-24T15:29:32.021Z,20.00
2018-09-24T15:32:05.587Z,19.00
2018-09-24T15:34:39.098Z,19.00
2018-09-24T15:37:12.787Z,19.50
2018-09-24T15:39:46.544Z,20.30
2018-09-24T15:42:20.277Z,20.50
2018-09-24T15:47:45.913Z,20.20
2018-09-24T15:50:19.579Z,20.00
2018-09-24T15:52:53.265Z,19.80
2018-09-24T15:55:26.922Z,19.40
2018-09-24T15:58:00.667Z,19.30
2018-09-24T16:00:34.257Z,20.10
2018-09-24T16:03:08.032Z,21.30
2018-09-24T16:05:41.656Z,22.10
2018-09-24T16:08:15.288Z,22.90
2018-09-24T16:10:48.955Z,23.10
2018-09-24T16:13:22.446Z,23.20
2018-09-24T16:15:56.201Z,22.90
2018-09-24T16:18:30.014Z,22.90
2018-09-24T16:21:03.707Z,23.40
2018-09-24T16:23:37.427Z,23.50
2018-09-24T16:26:11.255Z,23.60
2018-09-24T16:28:44.687Z,23.40
2018-09-24T16:31:18.291Z,22.60
2018-09-24T16:33:51.990Z,22.50
2018-09-24T16:36:25.800Z,23.00
2018-09-24T16:38:59.371Z,23.10
2018-09-24T16:41:33.040Z,22.90
2018-09-24T16:44:06.829Z,22.10
2018-09-24T16:46:40.573Z,21.50
2018-09-24T16:49:14.231Z,21.20
2018-09-24T16:51:47.971Z,21.00
2018-09-24T16:54:21.618Z,20.60
2018-09-24T16:56:55.370Z,19.70
2018-09-24T16:59:29.580Z,19.30
2018-09-24T17:02:03.298Z,19.00
2018-09-24T17:04:37.067Z,18.40
2018-09-24T17:07:10.750Z,17.80
2018-09-24T17:09:44.430Z,17.50
2018-09-24T17:12:18.292Z,17.00
2018-09-24T17:14:52.022Z,16.40
2018-09-24T17:17:25.660Z,15.60
2018-09-24T17:19:59.286Z,15.50
2018-09-24T17:22:35.353Z,15.30
2018-09-24T17:25:09.139Z,15.20
2018-09-24T17:27:42.987Z,15.20
2018-09-24T17:30:16.736Z,15.10
2018-09-24T17:32:50.850Z,14.80
2018-09-24T17:35:24.707Z,14.80
2018-09-24T17:37:58.396Z,14.70
2018-09-24T17:40:32.151Z,14.70
2018-09-24T17:43:05.771Z,14.70
2018-09-24T17:45:41.330Z,14.60
2018-09-24T17:48:15.039Z,14.60
2018-09-24T17:50:48.722Z,14.50
2018-09-24T17:53:22.393Z,14.50
2018-09-24T17:55:56.136Z,14.40
2018-09-24T17:58:29.798Z,14.50
2018-09-24T18:01:03.690Z,14.50
2018-09-24T18:03:37.457Z,14.50
2018-09-24T18:06:11.966Z,14.50
2018-09-24T18:08:45.836Z,14.40
2018-09-24T18:11:19.420Z,14.40
2018-09-24T18:13:53.312Z,14.30
2018-09-24T18:16:27.043Z,14.10
2018-09-24T18:19:00.509Z,14.00
2018-09-24T18:21:34.159Z,14.20
2018-09-24T18:24:07.891Z,14.10
2018-09-24T18:26:41.603Z,14.20
2018-09-24T18:29:15.194Z,14.10
2018-09-24T18:31:48.930Z,14.30
2018-09-24T18:34:23.716Z,14.30
2018-09-24T18:36:57.254Z,14.30
2018-09-24T18:39:30.862Z,14.10
2018-09-24T18:42:04.627Z,13.90
2018-09-24T18:44:38.402Z,13.70
2018-09-24T18:47:12.212Z,13.70
2018-09-24T18:49:45.996Z,13.70
2018-09-24T18:52:19.760Z,13.60
2018-09-24T18:54:53.692Z,13.40
2018-09-24T18:57:27.573Z,13.50
2018-09-24T19:00:01.330Z,13.50
2018-09-24T19:02:35.087Z,13.50
2018-09-24T19:05:08.501Z,13.50
2018-09-24T19:07:42.107Z,13.50
2018-09-24T19:10:15.856Z,13.30
2018-09-24T19:12:49.523Z,13.20
2018-09-24T19:15:23.309Z,13.30
2018-09-24T19:17:56.928Z,13.20
2018-09-24T19:20:30.632Z,13.20
2018-09-24T19:23:04.354Z,13.00
2018-09-24T19:25:38.090Z,12.90
2018-09-24T19:28:11.854Z,12.90
2018-09-24T19:30:45.576Z,12.80
2018-09-24T19:33:19.178Z,12.90
2018-09-24T19:35:52.956Z,12.70
2018-09-24T19:38:26.887Z,12.60
2018-09-24T19:41:00.344Z,12.60
2018-09-24T19:43:33.951Z,12.70
2018-09-24T19:46:07.520Z,12.70
2018-09-24T19:48:47.815Z,12.80
2018-09-24T19:51:21.577Z,12.80
2018-09-24T19:53:55.305Z,12.80
2018-09-24T19:56:29.010Z,12.80
2018-09-24T19:59:02.737Z,12.70
2018-09-24T20:01:36.485Z,12.70
2018-09-24T20:04:10.140Z,12.50
2018-09-24T20:06:43.742Z,12.30
2018-09-24T20:09:17.655Z,12.20
2018-09-24T20:11:51.346Z,12.20
2018-09-24T20:14:24.976Z,12.20
2018-09-24T20:16:58.807Z,12.30
2018-09-24T20:19:32.582Z,12.30
2018-09-24T20:22:06.426Z,12.20
2018-09-24T20:24:40.261Z,12.10
2018-09-24T20:27:13.878Z,12.20
2018-09-24T20:29:47.537Z,12.20
2018-09-24T20:32:21.338Z,12.30
2018-09-24T20:34:55.119Z,12.40
2018-09-24T20:37:28.776Z,12.40
2018-09-24T20:40:02.614Z,12.30
2018-09-24T20:42:36.259Z,12.30
2018-09-24T20:45:10.468Z,12.30
2018-09-24T20:47:44.279Z,12.30
2018-09-24T20:50:17.786Z,12.30
2018-09-24T20:52:51.655Z,12.20
2018-09-24T20:55:25.243Z,12.10
2018-09-24T20:57:59.053Z,12.00
2018-09-24T21:00:32.762Z,12.00
2018-09-24T21:03:06.456Z,12.00
2018-09-24T21:05:40.253Z,12.00
2018-09-24T21:08:14.063Z,11.90
2018-09-24T21:10:47.946Z,11.80
2018-09-24T21:13:21.733Z,11.80
2018-09-24T21:15:56.095Z,11.80
2018-09-24T21:18:29.572Z,11.80
2018-09-24T21:21:03.075Z,11.70
2018-09-24T21:23:36.867Z,11.70
2018-09-24T21:26:10.670Z,11.60
2018-09-24T21:28:44.338Z,11.60
2018-09-24T21:31:18.564Z,11.50
2018-09-24T21:33:52.099Z,11.50
2018-09-24T21:36:25.763Z,11.40
2018-09-24T21:38:59.467Z,11.30
2018-09-24T21:41:33.255Z,11.30
2018-09-24T21:44:06.999Z,11.20
2018-09-24T21:46:40.991Z,11.10
2018-09-24T21:49:14.511Z,11.10
2018-09-24T21:51:48.169Z,11.00
2018-09-24T21:54:21.888Z,11.00
2018-09-24T21:56:55.524Z,11.00
2018-09-24T21:59:29.158Z,11.00
2018-09-24T22:02:02.865Z,11.00
2018-09-24T22:04:36.549Z,11.00
2018-09-24T22:07:10.237Z,11.00
2018-09-24T22:09:43.928Z,10.90
2018-09-24T22:12:17.646Z,10.90
2018-09-24T22:14:51.312Z,10.80
2018-09-24T22:17:25.136Z,10.80
2018-09-24T22:19:58.606Z,10.70
2018-09-24T22:22:32.131Z,10.60
2018-09-24T22:25:05.953Z,10.60
2018-09-24T22:27:39.643Z,10.60
2018-09-24T22:30:13.435Z,10.50
2018-09-24T22:32:47.226Z,10.50
2018-09-24T22:35:20.894Z,10.50
2018-09-24T22:37:54.713Z,10.40
2018-09-24T22:40:28.308Z,10.40
2018-09-24T22:43:01.926Z,10.30
2018-09-24T22:45:35.563Z,10.30
2018-09-24T22:48:09.241Z,10.30
2018-09-24T22:50:42.933Z,10.20
2018-09-24T22:53:16.705Z,10.20
2018-09-24T22:55:50.409Z,10.30
2018-09-24T22:58:24.006Z,10.30
2018-09-24T23:00:57.564Z,10.20
2018-09-24T23:03:31.280Z,10.10
2018-09-24T23:06:05.610Z,10.10
2018-09-24T23:08:39.222Z,10.00
2018-09-24T23:11:12.895Z,10.00
2018-09-24T23:13:46.616Z,9.90
2018-09-24T23:16:20.373Z,9.90
2018-09-24T23:18:54.082Z,9.90
2018-09-24T23:21:27.871Z,9.80
2018-09-24T23:24:01.318Z,9.70
2018-09-24T23:26:34.913Z,9.70
2018-09-24T23:29:08.567Z,9.70
2018-09-24T23:31:43.222Z,9.80
2018-09-24T23:34:16.855Z,9.70
2018-09-24T23:36:50.363Z,9.60
2018-09-24T23:39:23.902Z,9.60
2018-09-24T23:41:57.984Z,9.70
2018-09-24T23:44:31.485Z,9.60
2018-09-24T23:47:05.134Z,9.60
2018-09-24T23:49:38.815Z,9.40
2018-09-24T23:52:12.471Z,9.50
2018-09-24T23:54:46.196Z,9.40
2018-09-24T23:57:19.819Z,9.40
2018-09-24T23:59:53.432Z,9.30
